sensor_id;sensor_type;location;lat;lon;timestamp;P1;durP1;ratioP1;P2;durP2;ratioP2
34236;SDS011;20501;45.956;13.632;2023-02-19T00:01:37;84.40;;;37.72;;
34236;SDS011;20501;45.956;13.632;2023-02-19T00:04:06;114.55;;;46.70;;
34236;SDS011;20501;45.956;13.632;2023-02-19T00:06:34;100.22;;;44.58;;
34236;SDS011;20501;45.956;13.632;2023-02-19T00:09:00;88.68;;;39.50;;
34236;SDS011;20501;45.956;13.632;2023-02-19T00:11:27;128.23;;;53.47;;
34236;SDS011;20501;45.956;13.632;2023-02-19T00:13:55;114.88;;;49.03;;
34236;SDS011;20501;45.956;13.632;2023-02-19T00:18:59;79.30;;;36.08;;
34236;SDS011;20501;45.956;13.632;2023-02-19T00:21:26;96.55;;;42.28;;
34236;SDS011;20501;45.956;13.632;2023-02-19T00:23:53;83.75;;;36.42;;
34236;SDS011;20501;45.956;13.632;2023-02-19T00:26:20;95.15;;;42.90;;
34236;SDS011;20501;45.956;13.632;2023-02-19T00:28:46;94.88;;;43.05;;
34236;SDS011;20501;45.956;13.632;2023-02-19T00:31:17;95.85;;;40.90;;
34236;SDS011;20501;45.956;13.632;2023-02-19T00:33:48;113.22;;;47.45;;
34236;SDS011;20501;45.956;13.632;2023-02-19T00:36:15;77.60;;;37.17;;
34236;SDS011;20501;45.956;13.632;2023-02-19T00:38:40;94.30;;;41.60;;
34236;SDS011;20501;45.956;13.632;2023-02-19T00:41:07;107.70;;;46.97;;
34236;SDS011;20501;45.956;13.632;2023-02-19T00:46:30;116.70;;;50.50;;
34236;SDS011;20501;45.956;13.632;2023-02-19T00:49:00;105.50;;;46.15;;
34236;SDS011;20501;45.956;13.632;2023-02-19T00:51:28;80.10;;;35.67;;
34236;SDS011;20501;45.956;13.632;2023-02-19T00:53:55;80.43;;;36.67;;
34236;SDS011;20501;45.956;13.632;2023-02-19T00:56:21;109.30;;;47.72;;
34236;SDS011;20501;45.956;13.632;2023-02-19T00:58:47;87.88;;;39.75;;
34236;SDS011;20501;45.956;13.632;2023-02-19T01:01:13;120.18;;;50.95;;
34236;SDS011;20501;45.956;13.632;2023-02-19T01:03:39;126.50;;;52.75;;
34236;SDS011;20501;45.956;13.632;2023-02-19T01:06:06;112.13;;;49.60;;
34236;SDS011;20501;45.956;13.632;2023-02-19T01:08:33;101.72;;;44.78;;
34236;SDS011;20501;45.956;13.632;2023-02-19T01:10:59;82.85;;;37.75;;
34236;SDS011;20501;45.956;13.632;2023-02-19T01:13:26;91.22;;;39.90;;
34236;SDS011;20501;45.956;13.632;2023-02-19T01:15:52;92.50;;;40.75;;
34236;SDS011;20501;45.956;13.632;2023-02-19T01:18:18;109.20;;;47.83;;
34236;SDS011;20501;45.956;13.632;2023-02-19T01:20:44;108.22;;;45.45;;
34236;SDS011;20501;45.956;13.632;2023-02-19T01:23:11;122.25;;;52.00;;
34236;SDS011;20501;45.956;13.632;2023-02-19T01:25:38;82.38;;;38.15;;
34236;SDS011;20501;45.956;13.632;2023-02-19T01:28:04;109.22;;;47.22;;
34236;SDS011;20501;45.956;13.632;2023-02-19T01:30:32;85.95;;;38.85;;
34236;SDS011;20501;45.956;13.632;2023-02-19T01:33:05;75.47;;;34.75;;
34236;SDS011;20501;45.956;13.632;2023-02-19T01:35:32;81.72;;;36.92;;
34236;SDS011;20501;45.956;13.632;2023-02-19T01:37:57;88.43;;;39.25;;
34236;SDS011;20501;45.956;13.632;2023-02-19T01:40:23;88.18;;;38.78;;
34236;SDS011;20501;45.956;13.632;2023-02-19T01:42:49;78.10;;;37.08;;
34236;SDS011;20501;45.956;13.632;2023-02-19T01:48:11;79.47;;;35.45;;
34236;SDS011;20501;45.956;13.632;2023-02-19T01:50:43;88.43;;;38.75;;
34236;SDS011;20501;45.956;13.632;2023-02-19T01:53:13;76.75;;;35.20;;
34236;SDS011;20501;45.956;13.632;2023-02-19T01:55:40;84.18;;;37.53;;
34236;SDS011;20501;45.956;13.632;2023-02-19T01:58:08;93.53;;;43.63;;
34236;SDS011;20501;45.956;13.632;2023-02-19T02:00:34;93.88;;;42.58;;
34236;SDS011;20501;45.956;13.632;2023-02-19T02:03:01;87.88;;;37.60;;
34236;SDS011;20501;45.956;13.632;2023-02-19T02:05:31;80.50;;;36.10;;
34236;SDS011;20501;45.956;13.632;2023-02-19T02:08:04;74.43;;;33.15;;
34236;SDS011;20501;45.956;13.632;2023-02-19T02:10:49;79.85;;;36.50;;
34236;SDS011;20501;45.956;13.632;2023-02-19T02:13:14;84.03;;;37.45;;
34236;SDS011;20501;45.956;13.632;2023-02-19T02:15:49;76.38;;;35.08;;
34236;SDS011;20501;45.956;13.632;2023-02-19T02:31:27;69.78;;;32.22;;
34236;SDS011;20501;45.956;13.632;2023-02-19T02:36:43;68.88;;;32.63;;
34236;SDS011;20501;45.956;13.632;2023-02-19T02:39:14;72.60;;;32.90;;
34236;SDS011;20501;45.956;13.632;2023-02-19T02:41:47;74.28;;;33.90;;
34236;SDS011;20501;45.956;13.632;2023-02-19T02:44:35;66.32;;;32.13;;
34236;SDS011;20501;45.956;13.632;2023-02-19T02:47:03;66.38;;;31.83;;
34236;SDS011;20501;45.956;13.632;2023-02-19T02:49:31;74.50;;;33.50;;
34236;SDS011;20501;45.956;13.632;2023-02-19T02:52:18;67.07;;;32.08;;
34236;SDS011;20501;45.956;13.632;2023-02-19T02:55:07;79.25;;;36.47;;
34236;SDS011;20501;45.956;13.632;2023-02-19T02:57:34;61.95;;;30.23;;
34236;SDS011;20501;45.956;13.632;2023-02-19T03:00:00;66.10;;;29.98;;
34236;SDS011;20501;45.956;13.632;2023-02-19T03:02:26;65.28;;;31.50;;
34236;SDS011;20501;45.956;13.632;2023-02-19T03:07:43;61.15;;;28.98;;
34236;SDS011;20501;45.956;13.632;2023-02-19T03:10:11;66.55;;;29.67;;
34236;SDS011;20501;45.956;13.632;2023-02-19T03:12:41;58.40;;;29.42;;
34236;SDS011;20501;45.956;13.632;2023-02-19T03:15:32;83.90;;;38.17;;
34236;SDS011;20501;45.956;13.632;2023-02-19T03:18:22;77.65;;;36.13;;
34236;SDS011;20501;45.956;13.632;2023-02-19T03:21:08;82.18;;;37.17;;
34236;SDS011;20501;45.956;13.632;2023-02-19T03:23:35;65.97;;;32.33;;
34236;SDS011;20501;45.956;13.632;2023-02-19T03:26:22;81.20;;;37.60;;
34236;SDS011;20501;45.956;13.632;2023-02-19T03:28:50;55.45;;;27.27;;
34236;SDS011;20501;45.956;13.632;2023-02-19T03:31:36;61.05;;;29.60;;
34236;SDS011;20501;45.956;13.632;2023-02-19T03:34:04;63.47;;;29.58;;
34236;SDS011;20501;45.956;13.632;2023-02-19T03:36:40;60.72;;;28.85;;
34236;SDS011;20501;45.956;13.632;2023-02-19T03:39:10;49.95;;;25.30;;
34236;SDS011;20501;45.956;13.632;2023-02-19T03:44:24;75.47;;;34.50;;
34236;SDS011;20501;45.956;13.632;2023-02-19T03:47:03;52.13;;;26.70;;
34236;SDS011;20501;45.956;13.632;2023-02-19T04:00:47;57.88;;;28.15;;
34236;SDS011;20501;45.956;13.632;2023-02-19T04:03:31;76.18;;;35.15;;
34236;SDS011;20501;45.956;13.632;2023-02-19T04:06:21;62.22;;;29.23;;
34236;SDS011;20501;45.956;13.632;2023-02-19T04:08:52;68.85;;;33.08;;
34236;SDS011;20501;45.956;13.632;2023-02-19T04:11:20;48.80;;;24.45;;
34236;SDS011;20501;45.956;13.632;2023-02-19T04:13:54;75.45;;;35.88;;
34236;SDS011;20501;45.956;13.632;2023-02-19T04:16:26;84.00;;;38.33;;
34236;SDS011;20501;45.956;13.632;2023-02-19T04:18:53;77.28;;;37.83;;
34236;SDS011;20501;45.956;13.632;2023-02-19T04:21:23;82.13;;;38.72;;
34236;SDS011;20501;45.956;13.632;2023-02-19T04:23:49;76.07;;;36.42;;
34236;SDS011;20501;45.956;13.632;2023-02-19T04:26:15;71.85;;;34.22;;
34236;SDS011;20501;45.956;13.632;2023-02-19T04:28:44;81.70;;;38.03;;
34236;SDS011;20501;45.956;13.632;2023-02-19T04:31:10;98.93;;;44.42;;
34236;SDS011;20501;45.956;13.632;2023-02-19T04:33:36;89.75;;;41.05;;
34236;SDS011;20501;45.956;13.632;2023-02-19T04:36:01;99.18;;;43.85;;
34236;SDS011;20501;45.956;13.632;2023-02-19T04:38:27;77.68;;;36.42;;
34236;SDS011;20501;45.956;13.632;2023-02-19T04:40:52;94.93;;;40.85;;
34236;SDS011;20501;45.956;13.632;2023-02-19T04:43:18;94.22;;;40.55;;
34236;SDS011;20501;45.956;13.632;2023-02-19T04:45:44;101.47;;;43.42;;
34236;SDS011;20501;45.956;13.632;2023-02-19T04:48:09;95.38;;;43.03;;
34236;SDS011;20501;45.956;13.632;2023-02-19T04:50:38;99.38;;;43.25;;
34236;SDS011;20501;45.956;13.632;2023-02-19T04:53:04;95.88;;;42.22;;
34236;SDS011;20501;45.956;13.632;2023-02-19T04:55:30;81.37;;;37.57;;
34236;SDS011;20501;45.956;13.632;2023-02-19T04:57:56;73.40;;;34.22;;
34236;SDS011;20501;45.956;13.632;2023-02-19T05:00:21;72.50;;;32.20;;
34236;SDS011;20501;45.956;13.632;2023-02-19T05:02:46;97.45;;;42.72;;
34236;SDS011;20501;45.956;13.632;2023-02-19T05:05:12;102.63;;;43.28;;
34236;SDS011;20501;45.956;13.632;2023-02-19T05:07:37;93.72;;;41.17;;
34236;SDS011;20501;45.956;13.632;2023-02-19T05:10:03;87.55;;;40.10;;
34236;SDS011;20501;45.956;13.632;2023-02-19T05:12:29;96.80;;;43.45;;
34236;SDS011;20501;45.956;13.632;2023-02-19T05:14:55;103.38;;;44.65;;
34236;SDS011;20501;45.956;13.632;2023-02-19T05:17:20;74.82;;;34.35;;
34236;SDS011;20501;45.956;13.632;2023-02-19T05:19:46;74.35;;;35.67;;
34236;SDS011;20501;45.956;13.632;2023-02-19T05:22:11;62.03;;;29.52;;
34236;SDS011;20501;45.956;13.632;2023-02-19T05:24:36;61.00;;;29.17;;
34236;SDS011;20501;45.956;13.632;2023-02-19T05:27:02;96.07;;;40.47;;
34236;SDS011;20501;45.956;13.632;2023-02-19T05:29:29;94.25;;;41.10;;
34236;SDS011;20501;45.956;13.632;2023-02-19T05:31:54;73.60;;;34.45;;
34236;SDS011;20501;45.956;13.632;2023-02-19T05:34:20;61.50;;;30.30;;
34236;SDS011;20501;45.956;13.632;2023-02-19T05:36:45;74.75;;;34.75;;
34236;SDS011;20501;45.956;13.632;2023-02-19T05:39:11;63.25;;;30.52;;
34236;SDS011;20501;45.956;13.632;2023-02-19T05:41:37;60.53;;;29.48;;
34236;SDS011;20501;45.956;13.632;2023-02-19T05:44:03;57.13;;;28.13;;
34236;SDS011;20501;45.956;13.632;2023-02-19T05:46:28;77.95;;;36.03;;
34236;SDS011;20501;45.956;13.632;2023-02-19T05:48:55;62.67;;;30.58;;
34236;SDS011;20501;45.956;13.632;2023-02-19T05:51:22;71.38;;;33.17;;
34236;SDS011;20501;45.956;13.632;2023-02-19T05:53:49;75.15;;;35.85;;
34236;SDS011;20501;45.956;13.632;2023-02-19T05:58:49;66.82;;;30.95;;
34236;SDS011;20501;45.956;13.632;2023-02-19T06:01:18;63.63;;;30.70;;
34236;SDS011;20501;45.956;13.632;2023-02-19T06:03:45;59.83;;;28.20;;
34236;SDS011;20501;45.956;13.632;2023-02-19T06:06:14;66.13;;;30.77;;
34236;SDS011;20501;45.956;13.632;2023-02-19T06:08:40;63.50;;;30.33;;
34236;SDS011;20501;45.956;13.632;2023-02-19T06:11:05;61.63;;;27.60;;
34236;SDS011;20501;45.956;13.632;2023-02-19T06:13:31;82.00;;;37.08;;
34236;SDS011;20501;45.956;13.632;2023-02-19T06:15:56;61.38;;;29.90;;
34236;SDS011;20501;45.956;13.632;2023-02-19T06:18:22;57.28;;;28.00;;
34236;SDS011;20501;45.956;13.632;2023-02-19T06:20:47;60.13;;;28.92;;
34236;SDS011;20501;45.956;13.632;2023-02-19T06:23:13;56.55;;;26.40;;
34236;SDS011;20501;45.956;13.632;2023-02-19T06:25:38;53.53;;;26.95;;
34236;SDS011;20501;45.956;13.632;2023-02-19T06:28:04;67.03;;;32.80;;
34236;SDS011;20501;45.956;13.632;2023-02-19T06:30:29;58.22;;;29.00;;
34236;SDS011;20501;45.956;13.632;2023-02-19T06:32:55;52.15;;;26.20;;
34236;SDS011;20501;45.956;13.632;2023-02-19T06:35:20;61.85;;;28.70;;
34236;SDS011;20501;45.956;13.632;2023-02-19T06:37:46;59.33;;;28.63;;
34236;SDS011;20501;45.956;13.632;2023-02-19T06:40:12;78.30;;;37.20;;
34236;SDS011;20501;45.956;13.632;2023-02-19T06:42:37;59.67;;;29.60;;
34236;SDS011;20501;45.956;13.632;2023-02-19T06:45:03;56.72;;;27.92;;
34236;SDS011;20501;45.956;13.632;2023-02-19T06:47:31;71.55;;;32.45;;
34236;SDS011;20501;45.956;13.632;2023-02-19T06:49:58;78.85;;;39.30;;
34236;SDS011;20501;45.956;13.632;2023-02-19T06:52:24;65.30;;;32.10;;
34236;SDS011;20501;45.956;13.632;2023-02-19T06:54:50;65.28;;;32.50;;
34236;SDS011;20501;45.956;13.632;2023-02-19T06:57:16;63.15;;;31.70;;
34236;SDS011;20501;45.956;13.632;2023-02-19T06:59:43;60.25;;;31.58;;
34236;SDS011;20501;45.956;13.632;2023-02-19T07:02:11;64.28;;;31.83;;
34236;SDS011;20501;45.956;13.632;2023-02-19T07:04:37;55.70;;;29.65;;
34236;SDS011;20501;45.956;13.632;2023-02-19T07:07:03;60.83;;;29.42;;
34236;SDS011;20501;45.956;13.632;2023-02-19T07:09:29;58.30;;;28.92;;
34236;SDS011;20501;45.956;13.632;2023-02-19T07:11:54;51.92;;;26.17;;
34236;SDS011;20501;45.956;13.632;2023-02-19T07:14:20;55.78;;;30.20;;
34236;SDS011;20501;45.956;13.632;2023-02-19T07:16:46;66.93;;;33.53;;
34236;SDS011;20501;45.956;13.632;2023-02-19T07:19:12;52.25;;;27.25;;
34236;SDS011;20501;45.956;13.632;2023-02-19T07:21:39;45.90;;;24.52;;
34236;SDS011;20501;45.956;13.632;2023-02-19T07:26:31;44.28;;;23.25;;
34236;SDS011;20501;45.956;13.632;2023-02-19T07:28:57;56.75;;;27.70;;
34236;SDS011;20501;45.956;13.632;2023-02-19T07:31:22;48.38;;;25.00;;
34236;SDS011;20501;45.956;13.632;2023-02-19T07:33:48;54.92;;;24.73;;
34236;SDS011;20501;45.956;13.632;2023-02-19T07:36:14;43.30;;;21.67;;
34236;SDS011;20501;45.956;13.632;2023-02-19T07:38:41;46.30;;;23.85;;
34236;SDS011;20501;45.956;13.632;2023-02-19T07:41:07;48.90;;;24.50;;
34236;SDS011;20501;45.956;13.632;2023-02-19T07:43:34;47.28;;;23.75;;
34236;SDS011;20501;45.956;13.632;2023-02-19T07:46:01;46.42;;;22.98;;
34236;SDS011;20501;45.956;13.632;2023-02-19T07:48:32;48.03;;;23.95;;
34236;SDS011;20501;45.956;13.632;2023-02-19T07:50:58;48.42;;;23.40;;
34236;SDS011;20501;45.956;13.632;2023-02-19T07:53:24;71.38;;;34.67;;
34236;SDS011;20501;45.956;13.632;2023-02-19T07:55:51;53.83;;;26.80;;
34236;SDS011;20501;45.956;13.632;2023-02-19T07:58:16;52.30;;;26.92;;
34236;SDS011;20501;45.956;13.632;2023-02-19T08:00:42;52.22;;;26.65;;
34236;SDS011;20501;45.956;13.632;2023-02-19T08:03:08;54.40;;;28.48;;
34236;SDS011;20501;45.956;13.632;2023-02-19T08:05:37;52.92;;;26.20;;
34236;SDS011;20501;45.956;13.632;2023-02-19T08:08:05;54.90;;;28.23;;
34236;SDS011;20501;45.956;13.632;2023-02-19T08:10:32;55.95;;;28.13;;
34236;SDS011;20501;45.956;13.632;2023-02-19T08:13:16;56.85;;;27.42;;
34236;SDS011;20501;45.956;13.632;2023-02-19T08:18:28;57.22;;;29.33;;
34236;SDS011;20501;45.956;13.632;2023-02-19T08:20:56;55.22;;;28.48;;
34236;SDS011;20501;45.956;13.632;2023-02-19T08:23:22;50.47;;;26.27;;
34236;SDS011;20501;45.956;13.632;2023-02-19T08:25:49;59.42;;;28.88;;
34236;SDS011;20501;45.956;13.632;2023-02-19T08:28:16;50.33;;;26.65;;
34236;SDS011;20501;45.956;13.632;2023-02-19T08:30:42;61.70;;;29.13;;
34236;SDS011;20501;45.956;13.632;2023-02-19T08:33:10;60.55;;;30.77;;
34236;SDS011;20501;45.956;13.632;2023-02-19T08:35:37;89.32;;;40.75;;
34236;SDS011;20501;45.956;13.632;2023-02-19T08:38:03;68.47;;;32.83;;
34236;SDS011;20501;45.956;13.632;2023-02-19T08:40:30;91.00;;;42.25;;
34236;SDS011;20501;45.956;13.632;2023-02-19T08:43:00;66.35;;;31.95;;
34236;SDS011;20501;45.956;13.632;2023-02-19T08:45:30;69.20;;;31.00;;
34236;SDS011;20501;45.956;13.632;2023-02-19T08:47:56;71.50;;;34.93;;
34236;SDS011;20501;45.956;13.632;2023-02-19T08:50:22;77.57;;;33.88;;
34236;SDS011;20501;45.956;13.632;2023-02-19T08:52:48;61.67;;;30.33;;
34236;SDS011;20501;45.956;13.632;2023-02-19T08:55:13;66.38;;;35.05;;
34236;SDS011;20501;45.956;13.632;2023-02-19T08:57:38;57.33;;;27.45;;
34236;SDS011;20501;45.956;13.632;2023-02-19T09:00:05;55.78;;;28.38;;
34236;SDS011;20501;45.956;13.632;2023-02-19T09:02:31;60.47;;;30.90;;
34236;SDS011;20501;45.956;13.632;2023-02-19T09:04:57;58.28;;;29.42;;
34236;SDS011;20501;45.956;13.632;2023-02-19T09:07:23;58.80;;;30.50;;
34236;SDS011;20501;45.956;13.632;2023-02-19T09:09:48;53.60;;;27.25;;
34236;SDS011;20501;45.956;13.632;2023-02-19T09:12:13;57.13;;;29.15;;
34236;SDS011;20501;45.956;13.632;2023-02-19T09:14:39;54.40;;;27.15;;
34236;SDS011;20501;45.956;13.632;2023-02-19T09:17:05;45.88;;;25.40;;
34236;SDS011;20501;45.956;13.632;2023-02-19T09:19:32;51.85;;;26.60;;
34236;SDS011;20501;45.956;13.632;2023-02-19T09:21:58;49.40;;;26.02;;
34236;SDS011;20501;45.956;13.632;2023-02-19T09:24:23;52.55;;;26.67;;
34236;SDS011;20501;45.956;13.632;2023-02-19T09:26:52;43.22;;;23.83;;
34236;SDS011;20501;45.956;13.632;2023-02-19T09:29:19;47.58;;;25.33;;
34236;SDS011;20501;45.956;13.632;2023-02-19T09:34:11;42.88;;;22.15;;
34236;SDS011;20501;45.956;13.632;2023-02-19T09:36:37;64.15;;;31.25;;
34236;SDS011;20501;45.956;13.632;2023-02-19T09:39:03;40.83;;;22.27;;
34236;SDS011;20501;45.956;13.632;2023-02-19T09:41:53;42.45;;;22.27;;
34236;SDS011;20501;45.956;13.632;2023-02-19T09:44:24;76.63;;;38.45;;
34236;SDS011;20501;45.956;13.632;2023-02-19T09:46:54;60.63;;;30.30;;
34236;SDS011;20501;45.956;13.632;2023-02-19T09:49:22;88.32;;;43.03;;
34236;SDS011;20501;45.956;13.632;2023-02-19T09:52:02;57.15;;;27.45;;
34236;SDS011;20501;45.956;13.632;2023-02-19T09:54:34;94.07;;;44.42;;
34236;SDS011;20501;45.956;13.632;2023-02-19T09:57:02;75.88;;;37.03;;
34236;SDS011;20501;45.956;13.632;2023-02-19T10:00:03;55.35;;;28.70;;
34236;SDS011;20501;45.956;13.632;2023-02-19T10:02:24;49.83;;;27.33;;
34236;SDS011;20501;45.956;13.632;2023-02-19T10:09:45;55.05;;;28.42;;
34236;SDS011;20501;45.956;13.632;2023-02-19T10:12:22;63.10;;;30.25;;
34236;SDS011;20501;45.956;13.632;2023-02-19T10:14:51;78.57;;;36.38;;
34236;SDS011;20501;45.956;13.632;2023-02-19T10:17:24;56.88;;;29.55;;
34236;SDS011;20501;45.956;13.632;2023-02-19T10:19:52;59.83;;;31.33;;
34236;SDS011;20501;45.956;13.632;2023-02-19T10:22:18;60.30;;;30.08;;
34236;SDS011;20501;45.956;13.632;2023-02-19T10:24:44;71.43;;;34.97;;
34236;SDS011;20501;45.956;13.632;2023-02-19T10:27:15;98.60;;;45.17;;
34236;SDS011;20501;45.956;13.632;2023-02-19T10:29:42;76.30;;;37.90;;
34236;SDS011;20501;45.956;13.632;2023-02-19T10:32:16;64.13;;;33.75;;
34236;SDS011;20501;45.956;13.632;2023-02-19T10:34:47;60.60;;;31.48;;
34236;SDS011;20501;45.956;13.632;2023-02-19T10:37:40;72.63;;;36.13;;
34236;SDS011;20501;45.956;13.632;2023-02-19T10:42:47;76.13;;;36.83;;
34236;SDS011;20501;45.956;13.632;2023-02-19T10:45:34;66.93;;;34.05;;
34236;SDS011;20501;45.956;13.632;2023-02-19T10:48:04;74.47;;;36.60;;
34236;SDS011;20501;45.956;13.632;2023-02-19T10:50:34;84.68;;;40.00;;
34236;SDS011;20501;45.956;13.632;2023-02-19T10:53:08;81.72;;;41.83;;
34236;SDS011;20501;45.956;13.632;2023-02-19T10:55:47;84.68;;;39.88;;
34236;SDS011;20501;45.956;13.632;2023-02-19T10:58:25;70.28;;;34.88;;
34236;SDS011;20501;45.956;13.632;2023-02-19T11:03:50;61.20;;;31.37;;
34236;SDS011;20501;45.956;13.632;2023-02-19T11:06:36;79.38;;;38.70;;
34236;SDS011;20501;45.956;13.632;2023-02-19T11:09:01;59.13;;;31.67;;
34236;SDS011;20501;45.956;13.632;2023-02-19T11:14:15;66.35;;;32.40;;
34236;SDS011;20501;45.956;13.632;2023-02-19T11:16:45;73.93;;;37.28;;
34236;SDS011;20501;45.956;13.632;2023-02-19T11:19:23;73.78;;;37.25;;
34236;SDS011;20501;45.956;13.632;2023-02-19T11:21:56;68.60;;;34.00;;
34236;SDS011;20501;45.956;13.632;2023-02-19T11:26:54;76.30;;;37.92;;
34236;SDS011;20501;45.956;13.632;2023-02-19T11:29:22;75.70;;;36.60;;
34236;SDS011;20501;45.956;13.632;2023-02-19T11:31:52;75.80;;;35.92;;
34236;SDS011;20501;45.956;13.632;2023-02-19T11:34:26;66.07;;;33.75;;
34236;SDS011;20501;45.956;13.632;2023-02-19T11:37:07;78.97;;;38.95;;
34236;SDS011;20501;45.956;13.632;2023-02-19T11:39:36;55.13;;;29.38;;
34236;SDS011;20501;45.956;13.632;2023-02-19T11:52:38;76.90;;;37.25;;
34236;SDS011;20501;45.956;13.632;2023-02-19T11:55:17;60.40;;;31.98;;
34236;SDS011;20501;45.956;13.632;2023-02-19T12:09:17;54.83;;;28.98;;
34236;SDS011;20501;45.956;13.632;2023-02-19T12:12:00;83.40;;;39.97;;
34236;SDS011;20501;45.956;13.632;2023-02-19T12:37:33;80.95;;;37.25;;
34236;SDS011;20501;45.956;13.632;2023-02-19T12:45:41;60.00;;;27.63;;
34236;SDS011;20501;45.956;13.632;2023-02-19T12:51:16;54.72;;;29.27;;
34236;SDS011;20501;45.956;13.632;2023-02-19T12:53:57;54.78;;;27.80;;
34236;SDS011;20501;45.956;13.632;2023-02-19T13:01:49;70.03;;;32.75;;
34236;SDS011;20501;45.956;13.632;2023-02-19T13:07:16;66.25;;;30.33;;
34236;SDS011;20501;45.956;13.632;2023-02-19T13:10:46;59.65;;;30.00;;
34236;SDS011;20501;45.956;13.632;2023-02-19T13:13:22;75.55;;;36.63;;
34236;SDS011;20501;45.956;13.632;2023-02-19T13:15:54;71.15;;;32.20;;
34236;SDS011;20501;45.956;13.632;2023-02-19T13:19:06;76.22;;;35.28;;
34236;SDS011;20501;45.956;13.632;2023-02-19T13:21:20;81.80;;;37.40;;
34236;SDS011;20501;45.956;13.632;2023-02-19T13:24:08;88.60;;;40.63;;
34236;SDS011;20501;45.956;13.632;2023-02-19T13:32:28;59.92;;;27.98;;
34236;SDS011;20501;45.956;13.632;2023-02-19T13:38:01;55.22;;;26.73;;
34236;SDS011;20501;45.956;13.632;2023-02-19T13:40:41;76.15;;;35.40;;
34236;SDS011;20501;45.956;13.632;2023-02-19T13:43:26;78.20;;;36.85;;
34236;SDS011;20501;45.956;13.632;2023-02-19T13:45:56;84.18;;;39.10;;
34236;SDS011;20501;45.956;13.632;2023-02-19T13:48:31;83.93;;;36.83;;
34236;SDS011;20501;45.956;13.632;2023-02-19T13:56:34;53.97;;;26.00;;
34236;SDS011;20501;45.956;13.632;2023-02-19T14:14:39;64.57;;;30.63;;
34236;SDS011;20501;45.956;13.632;2023-02-19T14:27:52;58.83;;;29.83;;
34236;SDS011;20501;45.956;13.632;2023-02-19T14:30:19;59.85;;;28.40;;
34236;SDS011;20501;45.956;13.632;2023-02-19T14:32:47;57.72;;;28.20;;
34236;SDS011;20501;45.956;13.632;2023-02-19T14:35:17;80.60;;;38.20;;
34236;SDS011;20501;45.956;13.632;2023-02-19T14:37:44;64.32;;;30.25;;
34236;SDS011;20501;45.956;13.632;2023-02-19T14:40:16;71.10;;;35.53;;
34236;SDS011;20501;45.956;13.632;2023-02-19T14:42:56;60.13;;;30.02;;
34236;SDS011;20501;45.956;13.632;2023-02-19T14:45:23;53.65;;;28.52;;
34236;SDS011;20501;45.956;13.632;2023-02-19T14:47:52;63.70;;;32.47;;
34236;SDS011;20501;45.956;13.632;2023-02-19T14:50:26;65.72;;;33.55;;
34236;SDS011;20501;45.956;13.632;2023-02-19T14:52:56;64.18;;;31.05;;
34236;SDS011;20501;45.956;13.632;2023-02-19T14:55:34;69.25;;;35.20;;
34236;SDS011;20501;45.956;13.632;2023-02-19T14:58:05;64.80;;;31.92;;
34236;SDS011;20501;45.956;13.632;2023-02-19T15:00:37;71.80;;;33.80;;
34236;SDS011;20501;45.956;13.632;2023-02-19T15:03:05;85.30;;;38.97;;
34236;SDS011;20501;45.956;13.632;2023-02-19T15:05:52;84.97;;;40.70;;
34236;SDS011;20501;45.956;13.632;2023-02-19T15:08:21;67.95;;;34.00;;
34236;SDS011;20501;45.956;13.632;2023-02-19T15:10:53;80.53;;;38.08;;
34236;SDS011;20501;45.956;13.632;2023-02-19T15:13:21;91.72;;;43.47;;
34236;SDS011;20501;45.956;13.632;2023-02-19T15:15:50;67.90;;;33.00;;
34236;SDS011;20501;45.956;13.632;2023-02-19T15:18:19;71.97;;;33.55;;
34236;SDS011;20501;45.956;13.632;2023-02-19T15:20:47;69.45;;;32.80;;
34236;SDS011;20501;45.956;13.632;2023-02-19T15:23:22;56.05;;;26.85;;
34236;SDS011;20501;45.956;13.632;2023-02-19T15:25:49;61.30;;;29.45;;
34236;SDS011;20501;45.956;13.632;2023-02-19T15:30:50;59.65;;;29.88;;
34236;SDS011;20501;45.956;13.632;2023-02-19T15:33:30;85.85;;;38.92;;
34236;SDS011;20501;45.956;13.632;2023-02-19T15:35:57;69.65;;;33.67;;
34236;SDS011;20501;45.956;13.632;2023-02-19T15:38:25;80.93;;;38.35;;
34236;SDS011;20501;45.956;13.632;2023-02-19T15:40:51;89.75;;;39.03;;
34236;SDS011;20501;45.956;13.632;2023-02-19T15:43:24;70.57;;;34.03;;
34236;SDS011;20501;45.956;13.632;2023-02-19T15:46:21;67.07;;;31.42;;
34236;SDS011;20501;45.956;13.632;2023-02-19T15:51:30;82.88;;;41.10;;
34236;SDS011;20501;45.956;13.632;2023-02-19T15:54:22;69.97;;;32.22;;
34236;SDS011;20501;45.956;13.632;2023-02-19T15:56:49;71.57;;;35.17;;
34236;SDS011;20501;45.956;13.632;2023-02-19T16:01:56;71.47;;;35.30;;
34236;SDS011;20501;45.956;13.632;2023-02-19T16:04:22;89.65;;;40.65;;
34236;SDS011;20501;45.956;13.632;2023-02-19T16:09:21;82.82;;;39.50;;
34236;SDS011;20501;45.956;13.632;2023-02-19T16:11:52;90.13;;;43.58;;
34236;SDS011;20501;45.956;13.632;2023-02-19T16:16:58;65.90;;;31.00;;
34236;SDS011;20501;45.956;13.632;2023-02-19T16:19:34;66.28;;;34.13;;
34236;SDS011;20501;45.956;13.632;2023-02-19T16:22:11;73.47;;;35.92;;
34236;SDS011;20501;45.956;13.632;2023-02-19T16:24:44;65.90;;;31.60;;
34236;SDS011;20501;45.956;13.632;2023-02-19T16:27:13;54.58;;;28.55;;
34236;SDS011;20501;45.956;13.632;2023-02-19T16:29:55;77.82;;;38.20;;
34236;SDS011;20501;45.956;13.632;2023-02-19T16:32:22;59.95;;;30.38;;
34236;SDS011;20501;45.956;13.632;2023-02-19T16:34:48;54.00;;;28.90;;
34236;SDS011;20501;45.956;13.632;2023-02-19T16:42:32;52.75;;;26.83;;
34236;SDS011;20501;45.956;13.632;2023-02-19T16:44:58;76.90;;;37.63;;
34236;SDS011;20501;45.956;13.632;2023-02-19T16:47:27;74.65;;;35.70;;
34236;SDS011;20501;45.956;13.632;2023-02-19T16:49:55;59.15;;;30.17;;
34236;SDS011;20501;45.956;13.632;2023-02-19T16:54:47;67.60;;;33.30;;
34236;SDS011;20501;45.956;13.632;2023-02-19T16:57:13;71.18;;;32.67;;
34236;SDS011;20501;45.956;13.632;2023-02-19T16:59:39;63.25;;;31.15;;
34236;SDS011;20501;45.956;13.632;2023-02-19T17:02:05;54.03;;;28.33;;
34236;SDS011;20501;45.956;13.632;2023-02-19T17:04:34;56.90;;;29.67;;
34236;SDS011;20501;45.956;13.632;2023-02-19T17:07:00;53.50;;;28.23;;
34236;SDS011;20501;45.956;13.632;2023-02-19T17:09:26;80.22;;;37.15;;
34236;SDS011;20501;45.956;13.632;2023-02-19T17:11:51;49.53;;;26.42;;
34236;SDS011;20501;45.956;13.632;2023-02-19T17:14:17;54.92;;;28.13;;
34236;SDS011;20501;45.956;13.632;2023-02-19T17:16:43;50.90;;;26.55;;
34236;SDS011;20501;45.956;13.632;2023-02-19T17:19:10;56.55;;;28.70;;
34236;SDS011;20501;45.956;13.632;2023-02-19T17:21:37;59.10;;;30.48;;
34236;SDS011;20501;45.956;13.632;2023-02-19T17:24:03;62.10;;;33.13;;
34236;SDS011;20501;45.956;13.632;2023-02-19T17:26:29;69.75;;;35.22;;
34236;SDS011;20501;45.956;13.632;2023-02-19T17:31:22;51.50;;;26.98;;
34236;SDS011;20501;45.956;13.632;2023-02-19T17:33:47;61.80;;;31.48;;
34236;SDS011;20501;45.956;13.632;2023-02-19T17:36:18;59.08;;;32.67;;